LYBE/BEG METAR and TAF weather

Enter ICAO airport designator
Station Type Date Time Source
LYBE METAR 2019/12/06 15:30 UTC NOAA

LYBE 061530Z 02004KT 4000 BR NSC 01/00 Q1023 TEMPO 2000 BKN004


Station Type Date Time Source
LYBE Decoded METAR 2019/12/06 15:30 UTC NOAA

Beograd / Surcin, Serbia and Montenegro (LYBE) 44-49N 020-17E 99M
Dec 06, 2019 - 10:30 AM EST / 2019.12.06 1530 UTC
Wind: from the NNE (020 degrees) at 5 MPH (4 KT):0
Visibility: 2 mile(s):0
Weather: mist
Temperature: 33 F (1 C)
Windchill: 28 F (-2 C):1
Dew Point: 32 F (0 C)
Relative Humidity: 93%
Pressure (altimeter): 30.21 in. Hg (1023 hPa)
ob: LYBE 061530Z 02004KT 4000 BR NSC 01/00 Q1023 TEMPO 2000 BKN004
cycle: 15

Station Type Date Time Source
LYBE TAF 2019/12/06 12:21 UTC NOAA

TAF LYBE 061100Z 0612/0712 16004KT 2000 BR OVC002 TX03/0712Z TNM01/0620Z
BECMG 0612/0614 5000 BKN006
TEMPO 0618/0706 2000 OVC003
BECMG 0709/0711 7000 NSW SCT010 SCT030

Example: see airport list